createdAt,value
2023-04-14T00:01:31.731Z,3.83
2023-04-14T00:06:35.907Z,2.77
2023-04-14T00:11:37.631Z,2.67
2023-04-14T00:16:41.182Z,3.90
2023-04-14T00:21:42.930Z,6.00
2023-04-14T00:26:44.898Z,2.87
2023-04-14T00:31:48.195Z,3.63
2023-04-14T00:36:49.881Z,2.10
2023-04-14T00:41:52.059Z,3.40
2023-04-14T00:46:55.952Z,4.00
2023-04-14T00:51:58.605Z,3.47
2023-04-14T00:57:03.046Z,3.23
2023-04-14T01:02:06.243Z,4.57
2023-04-14T01:07:08.101Z,4.50
2023-04-14T01:12:21.517Z,3.23
2023-04-14T01:17:32.499Z,2.87
2023-04-14T01:22:38.960Z,3.93
2023-04-14T01:27:46.044Z,3.53
2023-04-14T01:32:52.092Z,6.30
2023-04-14T01:38:03.556Z,4.37
2023-04-14T01:43:10.123Z,5.00
2023-04-14T01:48:14.171Z,6.10
2023-04-14T01:53:18.097Z,4.50
2023-04-14T01:58:22.225Z,4.63
2023-04-14T02:03:27.072Z,4.40
2023-04-14T02:08:31.541Z,5.83
2023-04-14T02:13:34.674Z,4.53
2023-04-14T02:18:40.724Z,5.17
2023-04-14T02:23:43.308Z,4.53
2023-04-14T02:28:50.335Z,3.33
2023-04-14T02:33:56.295Z,4.83
2023-04-14T02:39:02.009Z,2.63
2023-04-14T02:44:18.319Z,2.77
2023-04-14T02:49:23.624Z,2.37
2023-04-14T02:54:27.555Z,3.40
2023-04-14T02:59:30.890Z,3.00
2023-04-14T03:04:37.716Z,2.80
2023-04-14T03:09:40.079Z,4.17
2023-04-14T03:14:44.428Z,4.73
2023-04-14T03:19:49.453Z,2.47
2023-04-14T03:24:53.239Z,2.17
2023-04-14T03:29:58.703Z,4.30
2023-04-14T03:35:03.173Z,4.17
2023-04-14T03:40:08.181Z,2.97
2023-04-14T03:45:11.188Z,3.53
2023-04-14T03:50:16.630Z,2.43
2023-04-14T03:55:19.512Z,2.93
2023-04-14T04:00:23.221Z,2.33
2023-04-14T04:05:27.934Z,2.93
2023-04-14T04:10:33.048Z,3.60
2023-04-14T04:15:35.624Z,3.43
2023-04-14T04:20:41.073Z,4.30
2023-04-14T04:25:43.507Z,3.13
2023-04-14T04:30:46.619Z,4.30
2023-04-14T04:35:51.319Z,3.80
2023-04-14T04:40:53.287Z,4.60
2023-04-14T04:46:14.475Z,4.60
2023-04-14T04:51:17.999Z,6.93
2023-04-14T04:56:20.358Z,2.53
2023-04-14T05:01:22.641Z,4.97
2023-04-14T05:06:25.798Z,3.00
2023-04-14T05:11:28.203Z,3.17
2023-04-14T05:16:30.304Z,6.47
2023-04-14T05:21:34.277Z,4.90
2023-04-14T05:26:57.793Z,4.77
2023-04-14T05:31:58.120Z,4.27
2023-04-14T05:37:01.222Z,3.77
2023-04-14T05:42:03.375Z,3.43
2023-04-14T05:47:05.270Z,4.00
2023-04-14T05:52:08.700Z,3.07
2023-04-14T05:57:10.430Z,4.30
2023-04-14T06:02:12.502Z,4.30
2023-04-14T06:07:15.878Z,3.60
2023-04-14T06:12:17.619Z,3.23
2023-04-14T06:17:19.860Z,5.43
2023-04-14T06:22:23.300Z,2.97
2023-04-14T06:27:25.565Z,3.70
2023-04-14T06:32:27.562Z,4.17
2023-04-14T06:37:30.796Z,4.73
2023-04-14T06:42:32.549Z,4.93
2023-04-14T06:47:34.351Z,3.37
2023-04-14T06:52:37.516Z,3.13
2023-04-14T06:57:39.208Z,3.97
2023-04-14T07:02:44.348Z,5.43
2023-04-14T07:07:47.452Z,3.80
2023-04-14T07:12:49.199Z,4.17
2023-04-14T07:17:51.223Z,3.77
2023-04-14T07:22:54.889Z,3.77
2023-04-14T07:28:03.038Z,5.50
2023-04-14T07:33:06.605Z,6.40
2023-04-14T07:38:09.959Z,4.90
2023-04-14T07:43:11.935Z,6.63
2023-04-14T07:48:13.806Z,5.03
2023-04-14T07:53:17.002Z,6.70
2023-04-14T07:58:24.297Z,6.10
2023-04-14T08:03:28.400Z,5.60
2023-04-14T08:08:31.809Z,5.87
2023-04-14T08:13:33.827Z,4.50
2023-04-14T08:18:36.742Z,4.17
2023-04-14T08:23:40.443Z,6.57
2023-04-14T08:28:42.506Z,6.53
2023-04-14T08:33:44.637Z,4.47
2023-04-14T08:38:48.210Z,4.30
2023-04-14T08:43:50.337Z,3.27
2023-04-14T08:48:58.817Z,5.17
2023-04-14T08:54:05.711Z,3.60
2023-04-14T08:59:09.642Z,5.50
2023-04-14T09:04:13.539Z,2.90
2023-04-14T09:09:18.187Z,3.03
2023-04-14T09:14:21.679Z,6.57
2023-04-14T09:19:24.638Z,3.73
2023-04-14T09:24:31.009Z,4.47
2023-04-14T09:29:34.175Z,4.23
2023-04-14T09:34:36.229Z,2.57
2023-04-14T09:39:48.905Z,2.70
2023-04-14T09:44:55.001Z,3.03
2023-04-14T09:49:58.120Z,3.70
2023-04-14T09:55:01.965Z,2.23
2023-04-14T10:00:17.745Z,2.33
2023-04-14T10:05:19.954Z,3.17
2023-04-14T10:10:23.121Z,2.87
2023-04-14T10:15:28.235Z,2.67
2023-04-14T10:20:30.966Z,2.90
2023-04-14T10:25:34.398Z,2.37
2023-04-14T10:30:36.573Z,2.47
2023-04-14T10:35:41.525Z,4.27
2023-04-14T10:40:47.378Z,2.40
2023-04-14T10:45:53.618Z,3.80
2023-04-14T10:50:58.624Z,4.13
2023-04-14T10:56:03.503Z,3.07
2023-04-14T11:01:23.931Z,2.30
2023-04-14T11:06:51.294Z,2.40
2023-04-14T11:11:56.028Z,3.80
2023-04-14T11:17:03.920Z,2.00
2023-04-14T11:22:07.045Z,2.20
2023-04-14T11:27:13.433Z,2.50
2023-04-14T11:32:15.348Z,3.77
2023-04-14T11:37:17.705Z,2.40
2023-04-14T11:42:20.800Z,2.50
2023-04-14T11:47:22.866Z,2.40
2023-04-14T11:52:24.913Z,2.83
2023-04-14T11:57:28.232Z,1.53
2023-04-14T12:02:30.709Z,4.67
2023-04-14T12:07:32.975Z,4.30
2023-04-14T12:12:36.074Z,3.40
2023-04-14T12:17:38.058Z,2.63
2023-04-14T12:22:49.186Z,2.13
2023-04-14T12:27:55.821Z,2.70
2023-04-14T12:32:58.974Z,1.93
2023-04-14T12:38:00.784Z,3.37
2023-04-14T12:43:05.223Z,4.47
2023-04-14T12:48:07.195Z,3.03
2023-04-14T12:53:25.479Z,1.97
2023-04-14T12:58:30.698Z,2.33
2023-04-14T13:03:41.252Z,3.37
2023-04-14T13:08:43.718Z,4.40
2023-04-14T13:13:47.355Z,3.30
2023-04-14T13:18:49.243Z,2.57
2023-04-14T13:23:51.326Z,2.57
2023-04-14T13:28:54.895Z,3.50
2023-04-14T13:33:57.327Z,3.07
2023-04-14T13:38:59.627Z,3.13
2023-04-14T13:44:03.752Z,3.43
2023-04-14T13:49:05.795Z,3.40
2023-04-14T13:54:07.728Z,2.83
2023-04-14T13:59:11.324Z,1.90
2023-04-14T14:04:13.151Z,1.80
2023-04-14T14:09:15.734Z,3.97
2023-04-14T14:14:18.916Z,2.67
2023-04-14T14:19:20.609Z,3.07
2023-04-14T14:24:22.392Z,1.63
2023-04-14T14:29:25.895Z,5.43
2023-04-14T14:34:27.740Z,3.47
2023-04-14T14:39:29.886Z,2.23
2023-04-14T14:44:33.438Z,2.60
2023-04-14T14:49:36.502Z,2.90
2023-04-14T14:54:40.934Z,4.23
2023-04-14T14:59:44.477Z,1.60
2023-04-14T15:04:46.223Z,2.97
2023-04-14T15:09:49.742Z,2.47
2023-04-14T15:14:53.464Z,4.33
2023-04-14T15:19:55.404Z,2.97
2023-04-14T15:24:57.666Z,3.60
2023-04-14T15:30:01.145Z,2.50
2023-04-14T15:35:03.935Z,4.17
2023-04-14T15:40:08.286Z,2.40
2023-04-14T15:45:12.197Z,3.70
2023-04-14T15:50:14.224Z,2.83
2023-04-14T15:55:24.420Z,2.73
2023-04-14T16:00:27.870Z,2.70
2023-04-14T16:05:30.193Z,4.03
2023-04-14T16:10:32.639Z,4.37
2023-04-14T16:15:36.365Z,3.33
2023-04-14T16:20:38.084Z,5.43
2023-04-14T16:25:39.799Z,4.27
2023-04-14T16:30:43.615Z,2.83
2023-04-14T16:35:45.894Z,3.20
2023-04-14T16:40:54.032Z,5.30
2023-04-14T16:46:02.536Z,5.37
2023-04-14T16:51:06.772Z,6.37
2023-04-14T16:56:10.439Z,5.00
2023-04-14T17:01:13.535Z,3.90
2023-04-14T17:06:15.713Z,3.43
2023-04-14T17:11:18.185Z,3.10
2023-04-14T17:16:21.338Z,2.60
2023-04-14T17:21:23.451Z,3.23
2023-04-14T17:26:25.480Z,3.40
2023-04-14T17:31:28.992Z,4.27
2023-04-14T17:36:30.736Z,4.07
2023-04-14T17:41:33.739Z,3.50
2023-04-14T17:46:37.229Z,4.63
2023-04-14T17:51:39.032Z,3.50
2023-04-14T17:56:41.152Z,4.80
2023-04-14T18:01:44.306Z,5.40
2023-04-14T18:06:46.442Z,4.20
2023-04-14T18:11:48.364Z,3.57
2023-04-14T18:16:51.878Z,3.30
2023-04-14T18:21:53.994Z,4.00
2023-04-14T18:26:56.291Z,3.40
2023-04-14T18:32:00.063Z,3.40
2023-04-14T18:37:02.206Z,3.00
2023-04-14T18:42:04.517Z,3.73
2023-04-14T18:47:07.569Z,4.10
2023-04-14T18:52:09.676Z,5.03
2023-04-14T18:57:11.677Z,3.47
2023-04-14T19:02:15.136Z,3.53
2023-04-14T19:07:16.945Z,5.93
2023-04-14T19:12:28.253Z,5.27
2023-04-14T19:17:34.720Z,4.93
2023-04-14T19:22:37.157Z,5.57
2023-04-14T19:27:40.660Z,4.47
2023-04-14T19:32:45.279Z,6.20
2023-04-14T19:37:47.271Z,6.33
2023-04-14T19:42:49.303Z,6.03
2023-04-14T19:47:53.691Z,5.73
2023-04-14T19:52:55.786Z,7.40
2023-04-14T19:57:59.812Z,5.83
2023-04-14T20:03:03.175Z,4.80
2023-04-14T20:08:05.334Z,5.63
2023-04-14T20:13:07.494Z,6.97
2023-04-14T20:18:11.774Z,6.40
2023-04-14T20:23:16.064Z,6.47
2023-04-14T20:28:18.812Z,5.30
2023-04-14T20:33:22.089Z,5.73
2023-04-14T20:38:24.899Z,6.70
2023-04-14T20:43:27.055Z,6.33
2023-04-14T20:48:32.420Z,6.47
2023-04-14T20:53:37.181Z,6.17
2023-04-14T20:58:41.234Z,5.77
2023-04-14T21:03:48.626Z,7.13
2023-04-14T21:08:54.461Z,4.97
2023-04-14T21:15:38.893Z,6.33
2023-04-14T21:19:28.553Z,5.90
2023-04-14T21:24:32.033Z,6.97
2023-04-14T21:29:34.283Z,6.43
2023-04-14T21:34:38.051Z,7.20
2023-04-14T21:39:39.814Z,4.87
2023-04-14T21:44:42.217Z,7.47
2023-04-14T21:49:45.803Z,5.83
2023-04-14T21:54:47.906Z,6.47
2023-04-14T21:59:50.101Z,6.90
2023-04-14T22:04:53.382Z,7.07
2023-04-14T22:09:55.461Z,6.83
2023-04-14T22:14:57.800Z,7.10
2023-04-14T22:20:01.743Z,7.40
2023-04-14T22:25:03.999Z,6.33
2023-04-14T22:30:09.744Z,7.37
2023-04-14T22:35:13.291Z,8.63
2023-04-14T22:40:15.514Z,9.67
2023-04-14T22:45:17.966Z,8.53
2023-04-14T22:50:21.329Z,9.10
2023-04-14T22:55:23.399Z,9.57
2023-04-14T23:00:25.166Z,11.07
2023-04-14T23:05:31.083Z,12.97
2023-04-14T23:10:33.101Z,13.63
2023-04-14T23:15:35.644Z,15.13
2023-04-14T23:20:39.147Z,15.27
2023-04-14T23:25:41.266Z,15.50
2023-04-14T23:30:43.381Z,16.53
2023-04-14T23:35:49.826Z,14.57
2023-04-14T23:40:55.018Z,16.60
2023-04-14T23:45:58.151Z,16.07
2023-04-14T23:51:15.513Z,16.70
2023-04-14T23:56:21.715Z,14.57
